Time;durP1;ratioP1;P1;durP2;ratioP2;P2;SDS_P1;SDS_P2;PMS_P1;PMS_P2;Temp;Humidity;BMP_temperature;BMP_pressure;BME280_temperature;BME280_humidity;BME280_pressure;Samples;Min_cycle;Max_cycle;Signal;HPM_P1;HPM_P2
2024/03/24 00:01:46;;;;;;;3.78;3.47;;;3.90;99.90;;;;;;493892;241;28025;-71
2024/03/24 00:03:47;;;;;;;8.93;3.85;;;3.90;99.90;;;;;;493945;241;28074;-72
2024/03/24 00:05:49;;;;;;;4.65;3.28;;;3.80;99.90;;;;;;493930;241;27466;-71
2024/03/24 00:07:50;;;;;;;3.75;3.45;;;3.80;99.90;;;;;;493926;241;27608;-71
2024/03/24 00:09:51;;;;;;;4.07;3.67;;;3.90;99.90;;;;;;493913;241;27554;-73
2024/03/24 00:11:52;;;;;;;3.78;3.40;;;3.90;99.90;;;;;;493937;241;27498;-72
2024/03/24 00:13:54;;;;;;;4.28;3.40;;;3.90;99.90;;;;;;493908;241;27682;-75
2024/03/24 00:15:55;;;;;;;3.70;3.40;;;3.90;99.90;;;;;;493899;241;27570;-73
2024/03/24 00:17:56;;;;;;;4.55;3.30;;;3.90;99.90;;;;;;493854;241;27540;-71
2024/03/24 00:19:57;;;;;;;3.50;3.20;;;3.90;99.90;;;;;;493856;241;27529;-71
2024/03/24 00:21:59;;;;;;;4.05;3.03;;;3.80;99.90;;;;;;493930;241;27989;-71
2024/03/24 00:24:01;;;;;;;3.12;2.92;;;3.90;99.90;;;;;;493941;241;28039;-72
2024/03/24 00:26:01;;;;;;;5.97;3.35;;;3.80;99.90;;;;;;493824;241;28028;-71
2024/03/24 00:28:02;;;;;;;4.20;3.22;;;3.70;99.90;;;;;;493862;241;27628;-71
2024/03/24 00:30:04;;;;;;;3.12;2.90;;;3.60;99.90;;;;;;493949;241;27585;-71
2024/03/24 00:32:05;;;;;;;2.83;2.60;;;3.60;99.90;;;;;;493948;237;27465;-71
2024/03/24 00:34:06;;;;;;;3.30;2.42;;;3.70;99.90;;;;;;493913;241;27532;-71
2024/03/24 00:36:07;;;;;;;3.67;3.03;;;3.70;99.90;;;;;;493923;241;27591;-71
2024/03/24 00:38:09;;;;;;;3.33;2.65;;;3.70;99.90;;;;;;493890;241;27565;-71
2024/03/24 00:40:10;;;;;;;2.90;2.70;;;3.70;99.90;;;;;;493965;241;27507;-71
2024/03/24 00:42:11;;;;;;;2.92;2.75;;;3.60;99.90;;;;;;493958;241;27479;-71
2024/03/24 00:44:12;;;;;;;4.05;3.55;;;3.60;99.90;;;;;;493929;241;27950;-72
2024/03/24 00:46:14;;;;;;;2.87;2.70;;;3.50;99.90;;;;;;493909;241;27938;-71
2024/03/24 00:48:15;;;;;;;2.90;2.70;;;3.40;99.90;;;;;;493951;241;28029;-71
2024/03/24 00:50:16;;;;;;;3.20;2.85;;;3.40;99.90;;;;;;493945;241;27627;-72
2024/03/24 00:52:17;;;;;;;3.12;2.80;;;3.30;99.90;;;;;;493919;241;27584;-70
2024/03/24 00:54:19;;;;;;;2.70;2.50;;;3.30;99.90;;;;;;493896;241;27616;-71
2024/03/24 00:56:20;;;;;;;3.28;2.90;;;3.30;99.90;;;;;;493925;241;27586;-70
2024/03/24 00:58:21;;;;;;;2.90;2.62;;;3.40;99.90;;;;;;493963;241;27552;-71
2024/03/24 01:00:22;;;;;;;2.35;2.25;;;3.30;99.90;;;;;;493937;237;27521;-71
2024/03/24 01:02:25;;;;;;;2.75;2.55;;;3.30;99.90;;;;;;493896;237;27619;-70
2024/03/24 01:04:25;;;;;;;3.25;2.97;;;3.30;99.90;;;;;;493807;241;27526;-72
2024/03/24 01:06:26;;;;;;;3.05;2.60;;;3.30;99.90;;;;;;493974;237;27504;-72
2024/03/24 01:08:27;;;;;;;2.92;2.37;;;3.30;99.90;;;;;;493920;241;28079;-70
2024/03/24 01:10:29;;;;;;;2.40;2.30;;;3.40;99.90;;;;;;493878;241;28086;-71
2024/03/24 01:12:30;;;;;;;2.67;2.40;;;3.40;99.90;;;;;;493884;241;27917;-71
2024/03/24 01:14:31;;;;;;;3.47;2.30;;;3.50;99.90;;;;;;493889;241;28081;-72
2024/03/24 01:16:32;;;;;;;2.87;2.37;;;3.40;99.90;;;;;;493960;241;27583;-73
2024/03/24 01:18:34;;;;;;;3.42;2.53;;;3.40;99.90;;;;;;493910;241;27478;-71
2024/03/24 01:20:35;;;;;;;2.28;2.10;;;3.40;99.90;;;;;;493738;241;27498;-71
2024/03/24 01:22:36;;;;;;;2.50;2.30;;;3.40;99.90;;;;;;493903;241;27462;-71
2024/03/24 01:24:37;;;;;;;2.35;2.05;;;3.50;99.90;;;;;;493936;241;27609;-71
2024/03/24 01:26:39;;;;;;;2.45;2.25;;;3.50;99.90;;;;;;493932;241;27545;-74
2024/03/24 01:28:40;;;;;;;2.30;2.20;;;3.50;99.90;;;;;;493901;241;27539;-71
2024/03/24 01:30:41;;;;;;;2.25;2.10;;;3.60;99.90;;;;;;493893;241;27604;-71
2024/03/24 01:32:43;;;;;;;3.92;1.95;;;3.50;99.90;;;;;;493903;241;27541;-71
2024/03/24 01:34:44;;;;;;;4.57;2.75;;;3.50;99.90;;;;;;493943;241;27469;-71
2024/03/24 01:36:47;;;;;;;6.32;2.55;;;3.50;99.90;;;;;;493946;241;27959;-71
2024/03/24 01:38:46;;;;;;;3.17;2.62;;;3.50;99.90;;;;;;493758;241;27970;-71
2024/03/24 01:40:48;;;;;;;2.87;2.58;;;3.60;99.90;;;;;;493898;241;27991;-72
2024/03/24 01:42:49;;;;;;;2.55;2.35;;;3.50;99.90;;;;;;494005;241;28151;-72
2024/03/24 01:44:50;;;;;;;6.60;2.30;;;3.50;99.90;;;;;;493962;237;27464;-71
2024/03/24 01:46:51;;;;;;;2.30;2.10;;;3.60;99.90;;;;;;493967;241;27485;-72
2024/03/24 01:48:53;;;;;;;2.08;1.98;;;3.60;99.90;;;;;;493947;241;27541;-70
2024/03/24 01:50:54;;;;;;;2.40;2.10;;;3.60;99.90;;;;;;493920;241;27494;-72
2024/03/24 01:52:55;;;;;;;2.60;2.30;;;3.70;99.90;;;;;;493958;241;27498;-71
2024/03/24 01:54:56;;;;;;;2.67;2.47;;;3.60;99.90;;;;;;493938;241;27482;-71
2024/03/24 01:56:58;;;;;;;9.68;2.10;;;3.70;99.90;;;;;;493928;241;27500;-71
2024/03/24 01:58:59;;;;;;;2.40;2.20;;;3.70;99.90;;;;;;493917;241;27545;-71
2024/03/24 02:01:00;;;;;;;2.40;2.17;;;3.70;99.90;;;;;;493956;241;27499;-71
2024/03/24 02:03:01;;;;;;;2.45;1.90;;;3.60;99.90;;;;;;493949;241;27954;-72
2024/03/24 02:05:03;;;;;;;2.47;2.05;;;3.50;99.90;;;;;;493923;241;27899;-71
2024/03/24 02:07:04;;;;;;;3.55;2.28;;;3.50;99.90;;;;;;493898;241;28152;-71
2024/03/24 02:09:06;;;;;;;2.85;2.17;;;3.60;99.90;;;;;;493920;241;27022;-71
2024/03/24 02:11:06;;;;;;;3.28;2.55;;;3.50;99.90;;;;;;493912;241;27469;-70
2024/03/24 02:13:08;;;;;;;2.22;2.12;;;3.50;99.90;;;;;;493911;241;27524;-72
2024/03/24 02:15:09;;;;;;;2.30;2.10;;;3.50;99.90;;;;;;493903;241;27450;-71
2024/03/24 02:17:10;;;;;;;4.22;2.35;;;3.50;99.90;;;;;;493895;241;27518;-71
2024/03/24 02:19:11;;;;;;;2.60;2.25;;;3.50;99.90;;;;;;493941;241;27907;-72
2024/03/24 02:21:13;;;;;;;3.75;2.30;;;3.60;99.90;;;;;;493968;237;27469;-71
2024/03/24 02:23:14;;;;;;;3.87;3.40;;;3.50;99.90;;;;;;493915;238;27578;-71
2024/03/24 02:25:15;;;;;;;2.83;2.25;;;3.50;99.90;;;;;;493916;241;27461;-71
2024/03/24 02:27:16;;;;;;;2.33;2.15;;;3.40;99.90;;;;;;493875;241;28035;-72
2024/03/24 02:29:18;;;;;;;2.72;2.30;;;3.50;99.90;;;;;;493955;241;28077;-73
2024/03/24 02:31:19;;;;;;;4.78;2.80;;;3.50;99.90;;;;;;493928;241;28050;-70
2024/03/24 02:33:20;;;;;;;3.65;2.05;;;3.50;99.90;;;;;;493896;241;29992;-72
2024/03/24 02:35:22;;;;;;;5.65;2.20;;;3.40;99.90;;;;;;493891;241;27545;-71
2024/03/24 02:37:23;;;;;;;3.40;2.40;;;3.40;99.90;;;;;;493954;241;27484;-70
2024/03/24 02:39:24;;;;;;;3.20;2.92;;;3.40;99.90;;;;;;493934;241;27501;-72
2024/03/24 02:41:25;;;;;;;3.60;2.30;;;3.50;99.90;;;;;;493910;241;27451;-71
2024/03/24 02:43:26;;;;;;;3.20;2.90;;;3.50;99.90;;;;;;493895;241;27626;-71
2024/03/24 02:45:28;;;;;;;5.47;2.70;;;3.50;99.90;;;;;;493908;241;27613;-70
2024/03/24 02:47:29;;;;;;;5.22;3.10;;;3.50;99.90;;;;;;493953;241;27644;-71
2024/03/24 02:49:30;;;;;;;2.90;2.65;;;3.50;99.90;;;;;;493926;238;27576;-73
2024/03/24 02:51:31;;;;;;;4.45;2.90;;;3.40;99.90;;;;;;493900;241;27462;-71
2024/03/24 02:53:33;;;;;;;3.87;2.80;;;3.40;99.90;;;;;;493881;241;28021;-71
2024/03/24 02:55:34;;;;;;;2.97;2.78;;;3.40;99.90;;;;;;493957;241;28187;-72
2024/03/24 02:57:35;;;;;;;2.87;2.67;;;3.40;99.90;;;;;;493939;237;27942;-71
2024/03/24 02:59:36;;;;;;;3.47;2.90;;;3.50;99.90;;;;;;493903;241;27976;-71
2024/03/24 03:01:38;;;;;;;3.10;2.90;;;3.50;99.90;;;;;;493881;237;27585;-70
2024/03/24 03:03:43;;;;;;;3.00;2.80;;;3.50;99.90;;;;;;493890;237;27509;-71
2024/03/24 03:05:40;;;;;;;3.17;2.80;;;3.50;99.90;;;;;;493603;241;27626;-72
2024/03/24 03:07:42;;;;;;;4.07;2.60;;;3.50;99.90;;;;;;493919;241;27471;-70
2024/03/24 03:09:43;;;;;;;2.80;2.60;;;3.50;99.90;;;;;;493876;241;27517;-71
2024/03/24 03:11:44;;;;;;;3.47;3.15;;;3.60;99.90;;;;;;493715;241;27586;-71
2024/03/24 03:13:45;;;;;;;2.50;2.35;;;3.50;99.90;;;;;;493920;241;27511;-72
2024/03/24 03:15:46;;;;;;;4.25;2.92;;;3.40;99.90;;;;;;493923;238;27584;-71
2024/03/24 03:17:48;;;;;;;3.85;2.85;;;3.40;99.90;;;;;;493945;237;27573;-72
2024/03/24 03:19:49;;;;;;;3.58;3.10;;;3.40;99.90;;;;;;493911;241;27533;-72
2024/03/24 03:21:50;;;;;;;3.37;3.03;;;3.40;99.90;;;;;;493950;241;28654;-71
2024/03/24 03:23:51;;;;;;;4.05;3.55;;;3.40;99.90;;;;;;493948;241;28016;-71
2024/03/24 03:25:53;;;;;;;3.30;3.00;;;3.50;99.90;;;;;;493965;241;28024;-70
2024/03/24 03:27:54;;;;;;;4.80;3.22;;;3.50;99.90;;;;;;493922;241;27450;-71
2024/03/24 03:29:55;;;;;;;3.37;3.08;;;3.40;99.90;;;;;;493901;241;27602;-71
2024/03/24 03:31:56;;;;;;;6.57;3.17;;;3.50;99.90;;;;;;493878;241;27496;-71
2024/03/24 03:33:58;;;;;;;3.60;3.33;;;3.50;99.90;;;;;;493769;241;27497;-71
2024/03/24 03:35:59;;;;;;;4.37;3.20;;;3.50;99.90;;;;;;493936;241;27544;-71
2024/03/24 03:38:00;;;;;;;3.40;3.10;;;3.50;99.90;;;;;;493921;237;27471;-71
2024/03/24 03:40:02;;;;;;;5.35;3.60;;;3.50;99.90;;;;;;493899;241;27555;-72
2024/03/24 03:42:03;;;;;;;7.22;3.60;;;3.40;99.90;;;;;;493974;241;27549;-73
2024/03/24 03:44:04;;;;;;;4.15;3.80;;;3.40;99.90;;;;;;493925;241;27914;-70
2024/03/24 03:46:05;;;;;;;3.50;3.20;;;3.40;99.90;;;;;;493933;241;28111;-72
2024/03/24 03:48:06;;;;;;;6.22;3.50;;;3.40;99.90;;;;;;493907;241;29096;-71
2024/03/24 03:50:17;;;;;;;4.43;3.95;;;3.50;99.90;;;;;;493958;241;27599;-70
2024/03/24 03:52:09;;;;;;;4.03;3.53;;;3.50;99.90;;;;;;493257;241;27502;-73
2024/03/24 03:54:11;;;;;;;4.25;3.95;;;3.50;99.90;;;;;;493948;241;27602;-70
2024/03/24 03:56:11;;;;;;;5.05;3.90;;;3.50;99.90;;;;;;493876;241;27536;-72
2024/03/24 03:58:13;;;;;;;3.83;3.53;;;3.40;99.90;;;;;;493890;241;27609;-71
2024/03/24 04:00:14;;;;;;;4.15;3.75;;;3.40;99.90;;;;;;493965;241;27544;-74
2024/03/24 04:02:15;;;;;;;7.45;5.40;;;3.40;99.90;;;;;;493902;241;27545;-74
2024/03/24 04:04:16;;;;;;;5.90;4.85;;;3.30;99.90;;;;;;493951;241;27467;-71
2024/03/24 04:06:18;;;;;;;4.80;4.40;;;3.30;99.90;;;;;;493966;241;27601;-71
2024/03/24 04:08:19;;;;;;;5.40;4.90;;;3.40;99.90;;;;;;494012;241;28078;-72
2024/03/24 04:10:20;;;;;;;7.07;5.00;;;3.40;99.90;;;;;;493982;241;28008;-71
2024/03/24 04:12:21;;;;;;;5.60;5.03;;;3.40;99.90;;;;;;493973;241;28095;-71
2024/03/24 04:14:23;;;;;;;7.25;5.43;;;3.40;99.90;;;;;;493886;241;27930;-71
2024/03/24 04:16:24;;;;;;;7.05;4.62;;;3.30;99.90;;;;;;493935;241;27499;-71
2024/03/24 04:18:25;;;;;;;5.45;4.95;;;3.30;99.90;;;;;;494007;241;27623;-72
2024/03/24 04:20:26;;;;;;;6.05;4.97;;;3.30;99.90;;;;;;493984;241;27470;-71
2024/03/24 04:22:28;;;;;;;5.60;4.40;;;3.30;99.90;;;;;;493952;241;27509;-73
2024/03/24 04:24:29;;;;;;;7.62;4.15;;;3.30;99.90;;;;;;493910;241;27463;-73
2024/03/24 04:26:30;;;;;;;8.20;4.10;;;3.30;99.90;;;;;;493982;241;27473;-74
2024/03/24 04:28:31;;;;;;;4.43;4.03;;;3.30;99.90;;;;;;493970;241;27514;-72
2024/03/24 04:30:33;;;;;;;4.47;3.95;;;3.30;99.90;;;;;;493966;241;27530;-70
2024/03/24 04:32:34;;;;;;;3.90;3.53;;;3.30;99.90;;;;;;493911;241;27594;-72
2024/03/24 04:34:35;;;;;;;4.70;3.97;;;3.40;99.90;;;;;;493945;241;28063;-70
2024/03/24 04:36:36;;;;;;;6.22;3.80;;;3.40;99.90;;;;;;493958;241;27935;-71
2024/03/24 04:38:40;;;;;;;6.15;3.70;;;3.30;99.90;;;;;;493918;241;29186;-72
2024/03/24 04:40:39;;;;;;;5.85;3.50;;;3.30;99.90;;;;;;493717;241;27510;-71
2024/03/24 04:42:40;;;;;;;6.97;3.92;;;3.30;99.90;;;;;;493897;241;27540;-71
2024/03/24 04:44:41;;;;;;;6.40;4.00;;;3.40;99.90;;;;;;493973;241;27517;-73
2024/03/24 04:46:43;;;;;;;5.68;3.85;;;3.30;99.90;;;;;;493927;237;27507;-71
2024/03/24 04:48:44;;;;;;;4.32;3.92;;;3.40;99.90;;;;;;493909;241;27540;-74
2024/03/24 04:50:45;;;;;;;6.72;3.72;;;3.30;99.90;;;;;;493913;241;27534;-72
2024/03/24 04:52:47;;;;;;;7.60;4.47;;;3.30;99.90;;;;;;493934;241;27499;-73
2024/03/24 04:54:48;;;;;;;6.03;4.25;;;3.30;99.90;;;;;;493956;241;28081;-73
2024/03/24 04:56:49;;;;;;;5.28;4.03;;;3.30;99.90;;;;;;493919;241;27918;-72
2024/03/24 04:58:50;;;;;;;5.57;4.50;;;3.30;99.90;;;;;;493884;241;29079;-71
2024/03/24 05:00:51;;;;;;;9.38;5.10;;;3.30;99.90;;;;;;493891;241;27887;-71
2024/03/24 05:02:53;;;;;;;5.32;4.15;;;3.30;99.90;;;;;;493932;241;27548;-70
2024/03/24 05:04:54;;;;;;;4.80;4.40;;;3.30;99.90;;;;;;493929;241;27464;-72
2024/03/24 05:06:59;;;;;;;6.37;4.55;;;3.30;99.90;;;;;;493934;241;27473;-71
2024/03/24 05:08:56;;;;;;;5.15;4.65;;;3.30;99.90;;;;;;493593;241;27505;-70
2024/03/24 05:10:58;;;;;;;5.90;4.72;;;3.40;99.90;;;;;;493957;241;27621;-72
2024/03/24 05:12:59;;;;;;;7.82;5.18;;;3.30;99.90;;;;;;493929;241;27569;-71
2024/03/24 05:15:00;;;;;;;7.75;5.47;;;3.30;99.90;;;;;;493917;241;27593;-71
2024/03/24 05:17:02;;;;;;;7.40;5.75;;;3.30;99.90;;;;;;493915;241;27905;-71
2024/03/24 05:19:04;;;;;;;5.62;4.75;;;3.30;99.90;;;;;;493895;241;28007;-71
2024/03/24 05:21:07;;;;;;;7.00;5.40;;;3.30;99.90;;;;;;493795;241;29247;-71
2024/03/24 05:23:08;;;;;;;5.65;4.95;;;3.30;99.90;;;;;;493946;241;27546;-73
2024/03/24 05:25:09;;;;;;;9.43;5.95;;;3.30;99.90;;;;;;493950;241;27460;-71
2024/03/24 05:27:10;;;;;;;6.45;5.28;;;3.30;99.90;;;;;;493897;241;27501;-71
2024/03/24 05:29:12;;;;;;;6.43;5.00;;;3.40;99.90;;;;;;493883;241;27478;-71
2024/03/24 05:31:13;;;;;;;6.75;6.05;;;3.40;99.90;;;;;;493885;241;27525;-71
2024/03/24 05:33:14;;;;;;;7.10;5.50;;;3.40;99.90;;;;;;493955;241;27529;-72
2024/03/24 05:35:15;;;;;;;7.10;5.30;;;3.40;99.90;;;;;;493915;241;27467;-70
2024/03/24 05:37:17;;;;;;;7.47;5.32;;;3.50;99.90;;;;;;493903;241;27492;-71
2024/03/24 05:39:18;;;;;;;8.85;5.80;;;3.50;99.90;;;;;;493885;241;27509;-71
2024/03/24 05:41:19;;;;;;;7.55;5.00;;;3.50;99.90;;;;;;493942;241;27496;-71
2024/03/24 05:43:20;;;;;;;9.85;5.30;;;3.60;99.90;;;;;;493940;241;27943;-72
2024/03/24 05:45:22;;;;;;;8.23;4.47;;;3.50;99.90;;;;;;493944;241;27927;-71
2024/03/24 05:47:23;;;;;;;6.43;4.75;;;3.50;99.90;;;;;;493764;241;28074;-72
2024/03/24 05:49:24;;;;;;;6.93;5.00;;;3.60;99.90;;;;;;493916;241;28720;-71
2024/03/24 05:51:25;;;;;;;9.95;5.37;;;3.60;99.90;;;;;;493979;241;27529;-71
2024/03/24 05:53:27;;;;;;;6.10;4.82;;;3.50;99.90;;;;;;493935;241;27622;-72
2024/03/24 05:55:28;;;;;;;5.25;4.50;;;3.50;99.90;;;;;;493897;241;27602;-71
2024/03/24 05:57:29;;;;;;;12.00;4.80;;;3.40;99.90;;;;;;493896;241;27541;-72
2024/03/24 05:59:30;;;;;;;7.50;5.00;;;3.50;99.90;;;;;;493934;241;27848;-73
2024/03/24 06:01:32;;;;;;;6.53;4.90;;;3.50;99.90;;;;;;493915;241;27481;-71
2024/03/24 06:03:33;;;;;;;5.47;4.87;;;3.60;99.90;;;;;;493917;237;27652;-71
2024/03/24 06:05:34;;;;;;;7.87;5.10;;;3.60;99.90;;;;;;493896;241;27461;-71
2024/03/24 06:07:35;;;;;;;9.45;5.35;;;3.60;99.90;;;;;;493917;241;28152;-71
2024/03/24 06:09:37;;;;;;;6.00;5.12;;;3.60;99.90;;;;;;493954;241;27965;-72
2024/03/24 06:11:38;;;;;;;6.45;4.80;;;3.60;99.90;;;;;;493905;241;27981;-71
2024/03/24 06:13:39;;;;;;;8.88;4.90;;;3.60;99.90;;;;;;493931;241;27978;-72
2024/03/24 06:15:40;;;;;;;5.70;4.70;;;3.70;99.90;;;;;;493876;241;27471;-71
2024/03/24 06:17:42;;;;;;;7.62;5.22;;;3.80;99.90;;;;;;493944;241;27518;-72
2024/03/24 06:19:43;;;;;;;6.53;4.75;;;3.90;99.90;;;;;;493940;241;27623;-71
2024/03/24 06:21:44;;;;;;;6.93;5.07;;;3.90;99.90;;;;;;493906;241;27971;-70
2024/03/24 06:23:46;;;;;;;7.82;5.10;;;4.00;99.90;;;;;;493913;241;27969;-71
2024/03/24 06:25:47;;;;;;;10.88;4.97;;;4.00;99.90;;;;;;493920;241;28128;-73
2024/03/24 06:27:48;;;;;;;9.88;4.62;;;3.90;99.90;;;;;;493961;241;27524;-71
2024/03/24 06:29:49;;;;;;;7.30;4.50;;;3.90;99.90;;;;;;493921;241;27506;-71
2024/03/24 06:31:51;;;;;;;5.37;4.87;;;3.90;99.90;;;;;;493915;241;27464;-71
2024/03/24 06:33:52;;;;;;;5.62;4.90;;;3.80;99.90;;;;;;493880;241;27603;-71
2024/03/24 06:35:53;;;;;;;8.55;5.00;;;3.80;99.90;;;;;;493935;241;27525;-73
2024/03/24 06:37:54;;;;;;;12.57;5.37;;;3.70;99.90;;;;;;493933;241;27561;-72
2024/03/24 06:39:56;;;;;;;8.38;5.07;;;3.80;99.90;;;;;;493895;241;27553;-72
2024/03/24 06:42:03;;;;;;;11.88;5.30;;;3.80;99.90;;;;;;493935;241;28658;-70
2024/03/24 06:43:58;;;;;;;10.38;5.47;;;3.80;99.90;;;;;;493425;241;28171;-71
2024/03/24 06:45:59;;;;;;;7.43;5.55;;;3.90;99.90;;;;;;493965;237;27501;-72
2024/03/24 06:48:01;;;;;;;11.15;4.93;;;3.90;99.90;;;;;;493951;241;27473;-70
2024/03/24 06:50:03;;;;;;;5.75;4.47;;;3.90;99.90;;;;;;493778;237;27580;-73
2024/03/24 06:52:03;;;;;;;11.48;5.20;;;3.90;99.90;;;;;;493910;241;27508;-73
2024/03/24 06:54:05;;;;;;;8.40;5.07;;;3.90;99.90;;;;;;493917;241;27541;-71
2024/03/24 06:56:06;;;;;;;5.53;5.00;;;4.00;99.90;;;;;;493925;241;27621;-71
2024/03/24 06:58:07;;;;;;;5.90;4.60;;;4.10;99.90;;;;;;493921;241;27467;-71
2024/03/24 07:00:08;;;;;;;5.05;4.55;;;4.10;99.90;;;;;;493955;241;27504;-71
2024/03/24 07:02:10;;;;;;;8.40;5.20;;;4.10;99.90;;;;;;493946;241;27959;-73
2024/03/24 07:04:11;;;;;;;7.70;5.20;;;4.20;99.90;;;;;;493942;237;27927;-73
2024/03/24 07:06:13;;;;;;;7.43;5.10;;;4.10;99.90;;;;;;493932;241;28139;-73
2024/03/24 07:08:13;;;;;;;6.62;4.72;;;4.10;99.90;;;;;;493908;241;27532;-73
2024/03/24 07:10:15;;;;;;;6.15;4.47;;;4.00;99.90;;;;;;493958;241;27462;-73
2024/03/24 07:12:16;;;;;;;8.63;5.03;;;4.10;99.90;;;;;;493964;241;27510;-73
2024/03/24 07:14:17;;;;;;;7.90;4.82;;;4.10;99.90;;;;;;493951;241;27457;-73
2024/03/24 07:16:19;;;;;;;7.25;5.30;;;4.20;99.90;;;;;;493933;241;27545;-73
2024/03/24 07:18:20;;;;;;;10.52;5.50;;;4.10;99.90;;;;;;494003;237;27841;-74
2024/03/24 07:20:21;;;;;;;10.27;5.03;;;4.10;99.90;;;;;;493990;241;27589;-73
2024/03/24 07:22:22;;;;;;;5.80;4.85;;;4.10;99.90;;;;;;493933;241;28084;-73
2024/03/24 07:24:23;;;;;;;10.50;5.03;;;4.10;99.90;;;;;;493951;241;27954;-71
2024/03/24 07:26:25;;;;;;;9.15;5.20;;;4.10;99.90;;;;;;493983;241;27490;-74
2024/03/24 07:28:26;;;;;;;7.53;5.22;;;4.20;99.90;;;;;;493977;241;27516;-75
2024/03/24 07:30:27;;;;;;;7.85;4.40;;;4.20;99.90;;;;;;493982;241;27469;-71
2024/03/24 07:32:28;;;;;;;11.93;5.03;;;4.30;99.90;;;;;;493970;237;27607;-73
2024/03/24 07:34:30;;;;;;;5.12;4.50;;;4.40;99.90;;;;;;493982;241;27482;-73
2024/03/24 07:36:31;;;;;;;8.40;4.22;;;4.50;99.90;;;;;;494025;241;27456;-70
2024/03/24 07:38:32;;;;;;;7.65;5.10;;;4.50;99.90;;;;;;493985;241;27957;-74
2024/03/24 07:40:33;;;;;;;10.20;5.20;;;4.50;99.90;;;;;;493957;241;27920;-73
2024/03/24 07:42:35;;;;;;;10.57;5.30;;;4.50;99.90;;;;;;493907;241;27528;-74
2024/03/24 07:44:36;;;;;;;13.60;6.10;;;4.40;99.90;;;;;;494000;241;27624;-74
2024/03/24 07:46:37;;;;;;;11.12;5.28;;;4.40;99.90;;;;;;493973;241;27544;-71
2024/03/24 07:48:38;;;;;;;7.82;5.15;;;4.40;99.90;;;;;;493952;241;27893;-71
2024/03/24 07:50:41;;;;;;;8.57;4.40;;;4.40;99.90;;;;;;493932;241;27551;-72
2024/03/24 07:52:41;;;;;;;10.13;4.80;;;4.40;99.90;;;;;;493852;237;27562;-73
2024/03/24 07:54:42;;;;;;;7.62;5.18;;;4.50;99.90;;;;;;493959;241;27979;-75
2024/03/24 07:56:43;;;;;;;10.00;5.30;;;4.50;99.90;;;;;;493948;241;27944;-74
2024/03/24 07:58:45;;;;;;;8.70;5.50;;;4.50;99.90;;;;;;493934;241;27494;-74
2024/03/24 08:00:46;;;;;;;10.32;5.32;;;4.50;99.90;;;;;;493897;241;27556;-73
2024/03/24 08:02:47;;;;;;;10.52;4.82;;;4.60;99.90;;;;;;493979;241;27470;-73
2024/03/24 08:04:48;;;;;;;11.82;4.43;;;4.60;99.90;;;;;;493963;241;27536;-74
2024/03/24 08:06:50;;;;;;;14.40;5.53;;;4.50;99.90;;;;;;493925;241;28007;-71
2024/03/24 08:08:51;;;;;;;10.52;5.00;;;4.40;99.90;;;;;;493869;241;27529;-71
2024/03/24 08:10:54;;;;;;;7.15;4.50;;;4.40;99.90;;;;;;493934;241;27517;-72
2024/03/24 08:12:54;;;;;;;7.93;4.78;;;4.40;99.90;;;;;;493842;237;27488;-73
2024/03/24 08:14:55;;;;;;;7.18;4.28;;;4.50;99.90;;;;;;493884;241;27651;-73
2024/03/24 08:16:57;;;;;;;7.22;5.22;;;4.40;99.90;;;;;;493613;241;27468;-73
2024/03/24 08:18:57;;;;;;;7.70;4.60;;;4.40;99.90;;;;;;493677;241;27617;-70
2024/03/24 08:20:59;;;;;;;6.12;4.45;;;4.30;99.90;;;;;;493984;241;28045;-72
2024/03/24 08:23:00;;;;;;;12.15;4.78;;;4.20;99.90;;;;;;493910;241;27911;-71
2024/03/24 08:25:01;;;;;;;11.25;4.87;;;4.30;99.90;;;;;;493852;241;28010;-74
2024/03/24 08:27:02;;;;;;;8.88;5.05;;;4.30;99.90;;;;;;493860;241;27462;-73
2024/03/24 08:29:05;;;;;;;9.75;4.85;;;4.30;99.90;;;;;;493945;241;27595;-73
2024/03/24 08:31:05;;;;;;;6.70;5.30;;;4.30;99.90;;;;;;493894;241;27505;-74
2024/03/24 08:33:07;;;;;;;8.88;5.35;;;4.20;99.90;;;;;;493939;241;27465;-72
2024/03/24 08:35:07;;;;;;;9.90;5.60;;;4.10;99.90;;;;;;493900;241;27530;-73
2024/03/24 08:37:09;;;;;;;10.90;6.00;;;4.20;99.90;;;;;;493935;241;27548;-74
2024/03/24 08:39:10;;;;;;;12.52;5.75;;;4.20;99.90;;;;;;493974;241;27943;-71
2024/03/24 08:41:13;;;;;;;10.07;5.72;;;4.30;99.90;;;;;;493945;241;28009;-71
2024/03/24 08:43:12;;;;;;;12.18;6.62;;;4.30;99.90;;;;;;493806;241;27484;-71
2024/03/24 08:45:14;;;;;;;9.68;6.03;;;4.30;99.90;;;;;;493928;241;27509;-73
2024/03/24 08:47:15;;;;;;;10.77;6.50;;;4.40;99.90;;;;;;493969;241;27588;-75
2024/03/24 08:49:16;;;;;;;13.27;6.28;;;4.40;99.90;;;;;;493944;241;27475;-73
2024/03/24 08:51:17;;;;;;;9.60;5.43;;;4.40;99.90;;;;;;493912;241;28073;-74
2024/03/24 08:53:19;;;;;;;12.55;5.95;;;4.30;99.90;;;;;;493891;241;28800;-73
2024/03/24 08:55:20;;;;;;;12.60;5.82;;;4.40;99.90;;;;;;493695;241;27473;-73
2024/03/24 08:57:21;;;;;;;23.23;6.62;;;4.40;99.90;;;;;;493950;241;27649;-74
2024/03/24 08:59:22;;;;;;;11.12;6.15;;;4.40;99.90;;;;;;493903;241;27467;-72
2024/03/24 09:01:24;;;;;;;10.82;6.37;;;4.40;99.90;;;;;;493907;237;27615;-73
2024/03/24 09:03:25;;;;;;;12.43;6.75;;;4.40;99.90;;;;;;493969;241;27544;-75
2024/03/24 09:05:26;;;;;;;11.57;6.40;;;4.40;99.90;;;;;;493958;241;27496;-74
2024/03/24 09:07:27;;;;;;;12.07;5.97;;;4.50;99.90;;;;;;493903;241;27978;-73
2024/03/24 09:09:29;;;;;;;14.07;5.82;;;4.60;99.90;;;;;;493919;241;27497;-73
2024/03/24 09:11:30;;;;;;;19.67;6.47;;;4.60;99.90;;;;;;493910;237;27607;-73
2024/03/24 09:13:31;;;;;;;10.15;5.68;;;4.70;99.90;;;;;;493969;237;27501;-76
2024/03/24 09:15:32;;;;;;;12.25;6.18;;;4.80;99.90;;;;;;493910;241;27477;-73
2024/03/24 09:17:34;;;;;;;21.20;6.65;;;4.80;99.90;;;;;;493923;241;27518;-73
2024/03/24 09:19:35;;;;;;;16.20;6.20;;;4.70;99.90;;;;;;493904;241;28834;-72
2024/03/24 09:21:36;;;;;;;17.42;5.95;;;4.80;99.90;;;;;;493984;241;27945;-74
2024/03/24 09:23:38;;;;;;;14.55;5.87;;;4.80;99.90;;;;;;493958;241;27507;-72
2024/03/24 09:25:39;;;;;;;13.15;6.40;;;4.80;99.90;;;;;;493931;241;27512;-74
2024/03/24 09:27:40;;;;;;;8.82;5.43;;;4.90;99.90;;;;;;493890;241;27512;-71
2024/03/24 09:29:41;;;;;;;16.70;5.25;;;4.90;99.90;;;;;;493852;240;27909;-72
2024/03/24 09:31:43;;;;;;;9.68;4.82;;;5.10;99.90;;;;;;493962;241;27587;-71
2024/03/24 09:33:44;;;;;;;14.35;5.78;;;5.00;99.90;;;;;;493934;241;27989;-71
2024/03/24 09:35:45;;;;;;;9.98;5.18;;;5.00;99.90;;;;;;493922;241;28014;-72
2024/03/24 09:37:46;;;;;;;15.93;5.30;;;5.10;99.90;;;;;;493935;241;27524;-72
2024/03/24 09:39:48;;;;;;;9.50;5.35;;;5.10;99.90;;;;;;493997;241;27597;-72
2024/03/24 09:41:49;;;;;;;10.23;5.37;;;5.00;99.90;;;;;;493958;241;27514;-71
2024/03/24 09:43:50;;;;;;;8.68;4.70;;;5.00;99.90;;;;;;493934;241;27618;-71
2024/03/24 09:45:51;;;;;;;11.00;5.62;;;4.90;99.90;;;;;;493943;237;27461;-70
2024/03/24 09:47:53;;;;;;;9.10;5.22;;;5.00;99.90;;;;;;493946;241;27998;-74
2024/03/24 09:49:54;;;;;;;14.95;5.53;;;4.90;99.90;;;;;;493729;241;28026;-74
2024/03/24 09:51:57;;;;;;;7.80;4.72;;;4.90;99.90;;;;;;493902;241;27470;-71
2024/03/24 09:53:56;;;;;;;10.95;4.70;;;5.00;99.90;;;;;;493822;241;27513;-71
2024/03/24 09:55:58;;;;;;;11.07;4.65;;;5.00;99.90;;;;;;493990;241;27892;-72
2024/03/24 09:57:59;;;;;;;10.60;5.00;;;5.10;99.90;;;;;;493945;237;28069;-70
2024/03/24 10:00:00;;;;;;;9.15;4.55;;;5.10;99.90;;;;;;493936;241;27617;-72
2024/03/24 10:02:01;;;;;;;9.23;4.53;;;5.00;99.90;;;;;;493910;237;27469;-70
2024/03/24 10:04:03;;;;;;;11.77;5.25;;;5.10;99.90;;;;;;493931;241;27568;-73
2024/03/24 10:06:04;;;;;;;9.95;4.80;;;5.10;99.90;;;;;;493934;241;27528;-75
2024/03/24 10:08:05;;;;;;;9.48;4.72;;;5.30;99.90;;;;;;493918;241;27552;-73
2024/03/24 10:10:07;;;;;;;11.52;5.85;;;5.40;99.90;;;;;;493939;241;28053;-72
2024/03/24 10:12:08;;;;;;;8.30;4.47;;;5.30;99.90;;;;;;493918;241;28271;-73
2024/03/24 10:14:09;;;;;;;9.98;4.68;;;5.20;99.90;;;;;;493966;241;27529;-72
2024/03/24 10:16:10;;;;;;;7.43;4.75;;;5.20;99.90;;;;;;493921;241;27597;-72
2024/03/24 10:18:14;;;;;;;14.45;4.75;;;5.20;99.90;;;;;;493942;241;27476;-74
2024/03/24 10:20:13;;;;;;;7.85;4.10;;;5.30;99.90;;;;;;493727;241;27627;-74
2024/03/24 10:22:14;;;;;;;7.60;3.72;;;5.20;99.90;;;;;;493957;241;27632;-76
2024/03/24 10:24:15;;;;;;;7.50;3.62;;;5.40;99.90;;;;;;493925;241;28005;-71
2024/03/24 10:26:17;;;;;;;11.07;4.70;;;5.40;99.90;;;;;;493927;241;27986;-71
2024/03/24 10:28:18;;;;;;;8.38;4.43;;;5.40;99.90;;;;;;493922;241;27482;-71
2024/03/24 10:30:19;;;;;;;10.15;4.70;;;5.30;99.90;;;;;;493994;241;27612;-71
2024/03/24 10:32:20;;;;;;;10.60;4.37;;;5.10;99.90;;;;;;493957;241;27513;-72
2024/03/24 10:34:22;;;;;;;16.55;4.65;;;5.10;99.90;;;;;;493943;241;27561;-71
2024/03/24 10:36:23;;;;;;;11.68;4.82;;;5.00;99.90;;;;;;493923;241;28082;-71
2024/03/24 10:38:24;;;;;;;9.73;4.18;;;4.90;99.90;;;;;;493941;241;27526;-71